DLH891 EVRA-EDDF
Flight info
| Callsign | DLH891 |
|---|---|
| Flight time | N/A |
| Altitude | 36000 |
| Route | VALED M869 LEP M864 ADAXA DCT NINTA DCT DIPEB DCT GOSOT DCT BANUB DCT POVEL DCT RIMET/N0429F350 T157 KOKEB/N0363F230 T157 KERAX KERAX5A |
| Aircraft | A320/M-SDE2E3FGIJ1LORWXYZ/HB1 |
Departure
| Time | N/A |
|---|---|
| Airport | Riga International Airport (EVRA) |
Arrival
| Time | 2026-05-04 18:54 |
|---|---|
| Airport | Frankfurt Main Airport (EDDF) |
| Time | Latitude | Longitude | Altitude | Speed | Heading |
|---|---|---|---|---|---|
| 2026-05-04 17:34 | 54.93851 | 15.95576 | 35946 ft | 409 kts | 245° |
| 2026-05-04 17:34 | 54.92614 | 15.91116 | 35944 ft | 409 kts | 245° |
| 2026-05-04 17:35 | 54.86410 | 15.68846 | 35957 ft | 409 kts | 245° |
| 2026-05-04 17:36 | 54.83907 | 15.59943 | 35960 ft | 409 kts | 245° |
| 2026-05-04 17:36 | 54.81397 | 15.51059 | 35952 ft | 410 kts | 245° |
| 2026-05-04 17:37 | 54.78893 | 15.42235 | 35941 ft | 410 kts | 245° |
| 2026-05-04 17:37 | 54.76375 | 15.33350 | 35951 ft | 410 kts | 245° |
| 2026-05-04 17:38 | 54.73853 | 15.24483 | 35960 ft | 410 kts | 244° |
| 2026-05-04 17:38 | 54.71310 | 15.15613 | 35965 ft | 411 kts | 244° |
| 2026-05-04 17:39 | 54.67497 | 15.02387 | 35957 ft | 411 kts | 244° |
| 2026-05-04 17:39 | 54.64938 | 14.93549 | 35963 ft | 411 kts | 244° |
| 2026-05-04 17:40 | 54.62359 | 14.84660 | 35969 ft | 411 kts | 244° |
| 2026-05-04 17:40 | 54.59793 | 14.75845 | 35927 ft | 411 kts | 244° |
| 2026-05-04 17:41 | 54.57221 | 14.67035 | 35944 ft | 411 kts | 244° |
| 2026-05-04 17:41 | 54.54639 | 14.58216 | 35957 ft | 412 kts | 244° |
| 2026-05-04 17:42 | 54.52040 | 14.49397 | 35953 ft | 413 kts | 244° |
| 2026-05-04 17:42 | 54.49427 | 14.40578 | 35959 ft | 413 kts | 244° |
| 2026-05-04 17:43 | 54.46766 | 14.31803 | 35962 ft | 414 kts | 239° |
| 2026-05-04 17:43 | 54.42934 | 14.24450 | 35958 ft | 418 kts | 226° |
| 2026-05-04 17:44 | 54.38664 | 14.17646 | 35939 ft | 418 kts | 226° |
| 2026-05-04 17:44 | 54.34391 | 14.10832 | 35942 ft | 419 kts | 226° |
| 2026-05-04 17:45 | 54.30111 | 14.04031 | 35953 ft | 420 kts | 226° |
| 2026-05-04 17:45 | 54.25825 | 13.97237 | 35956 ft | 420 kts | 226° |
| 2026-05-04 17:46 | 54.21520 | 13.90438 | 35978 ft | 420 kts | 226° |
| 2026-05-04 17:46 | 54.17876 | 13.84688 | 35942 ft | 421 kts | 226° |
| 2026-05-04 17:47 | 54.13567 | 13.77904 | 35950 ft | 422 kts | 226° |
| 2026-05-04 17:47 | 54.09232 | 13.71107 | 35956 ft | 423 kts | 226° |
| 2026-05-04 17:48 | 54.04923 | 13.64377 | 35957 ft | 423 kts | 226° |
| 2026-05-04 17:48 | 54.00549 | 13.57556 | 35963 ft | 423 kts | 226° |
| 2026-05-04 17:49 | 53.96188 | 13.50777 | 35939 ft | 424 kts | 226° |
| 2026-05-04 17:49 | 53.91822 | 13.44017 | 35946 ft | 425 kts | 226° |
| 2026-05-04 17:50 | 53.86916 | 13.36449 | 35964 ft | 425 kts | 226° |
| 2026-05-04 17:50 | 53.82991 | 13.30399 | 35967 ft | 426 kts | 226° |
| 2026-05-04 17:51 | 53.78527 | 13.23537 | 35971 ft | 426 kts | 226° |
| 2026-05-04 17:51 | 53.74074 | 13.16719 | 35954 ft | 426 kts | 226° |
| 2026-05-04 17:52 | 53.69534 | 13.09805 | 35965 ft | 426 kts | 226° |
| 2026-05-04 17:52 | 53.65215 | 13.03250 | 35968 ft | 427 kts | 226° |
| 2026-05-04 17:53 | 53.60795 | 12.96535 | 35972 ft | 427 kts | 226° |
| 2026-05-04 17:53 | 53.56377 | 12.89838 | 35974 ft | 427 kts | 226° |
| 2026-05-04 17:54 | 53.51950 | 12.83163 | 35967 ft | 426 kts | 225° |
| 2026-05-04 17:54 | 53.47525 | 12.76514 | 35975 ft | 426 kts | 225° |
| 2026-05-04 17:55 | 53.43015 | 12.69751 | 35975 ft | 425 kts | 225° |
| 2026-05-04 17:55 | 53.38623 | 12.63191 | 35975 ft | 425 kts | 225° |
| 2026-05-04 17:56 | 53.34143 | 12.56511 | 35974 ft | 425 kts | 225° |
| 2026-05-04 17:56 | 53.29753 | 12.49993 | 35971 ft | 424 kts | 225° |
| 2026-05-04 17:57 | 53.25331 | 12.43437 | 35981 ft | 422 kts | 225° |
| 2026-05-04 17:57 | 53.20934 | 12.36934 | 35981 ft | 422 kts | 225° |
| 2026-05-04 17:58 | 53.17251 | 12.31504 | 36000 ft | 422 kts | 225° |
| 2026-05-04 17:58 | 53.12842 | 12.25025 | 35995 ft | 421 kts | 225° |
| 2026-05-04 17:59 | 53.08443 | 12.18571 | 35970 ft | 421 kts | 224° |
| 2026-05-04 18:00 | 53.01859 | 12.08943 | 35976 ft | 421 kts | 224° |
| 2026-05-04 18:00 | 52.97709 | 12.02898 | 35978 ft | 421 kts | 224° |
| 2026-05-04 18:01 | 52.92975 | 11.96023 | 35981 ft | 421 kts | 224° |
| 2026-05-04 18:01 | 52.88552 | 11.89628 | 35980 ft | 421 kts | 224° |
| 2026-05-04 18:02 | 52.81903 | 11.80052 | 35980 ft | 421 kts | 224° |
| 2026-05-04 18:02 | 52.77484 | 11.73682 | 35977 ft | 421 kts | 224° |
| 2026-05-04 18:03 | 52.73057 | 11.67336 | 35976 ft | 421 kts | 224° |
| 2026-05-04 18:03 | 52.68659 | 11.61064 | 35975 ft | 421 kts | 224° |
| 2026-05-04 18:04 | 52.64189 | 11.54701 | 35961 ft | 421 kts | 223° |
| 2026-05-04 18:05 | 52.57474 | 11.45150 | 35957 ft | 421 kts | 223° |
| 2026-05-04 18:05 | 52.52994 | 11.38822 | 35958 ft | 421 kts | 223° |
| 2026-05-04 18:06 | 52.46308 | 11.29387 | 35943 ft | 421 kts | 223° |
| 2026-05-04 18:06 | 52.41856 | 11.23120 | 35948 ft | 421 kts | 223° |
| 2026-05-04 18:07 | 52.37414 | 11.16899 | 35966 ft | 409 kts | 223° |
| 2026-05-04 18:07 | 52.33110 | 11.10882 | 35967 ft | 406 kts | 223° |
| 2026-05-04 18:08 | 52.29332 | 11.05614 | 35966 ft | 406 kts | 223° |
| 2026-05-04 18:08 | 52.25026 | 10.99646 | 35943 ft | 406 kts | 222° |
| 2026-05-04 18:09 | 52.16301 | 10.87587 | 35980 ft | 407 kts | 222° |
| 2026-05-04 18:10 | 52.11754 | 10.81967 | 35971 ft | 410 kts | 212° |
| 2026-05-04 18:10 | 52.09197 | 10.79903 | 35843 ft | 411 kts | 208° |
| 2026-05-04 18:10 | 52.06613 | 10.77916 | 35434 ft | 411 kts | 208° |
| 2026-05-04 18:11 | 52.03926 | 10.75845 | 34997 ft | 410 kts | 208° |
| 2026-05-04 18:11 | 52.01272 | 10.73794 | 34559 ft | 410 kts | 208° |
| 2026-05-04 18:11 | 51.98695 | 10.71798 | 34152 ft | 409 kts | 209° |
| 2026-05-04 18:11 | 51.96096 | 10.69781 | 33704 ft | 409 kts | 209° |
| 2026-05-04 18:12 | 51.93552 | 10.67810 | 33237 ft | 409 kts | 209° |
| 2026-05-04 18:12 | 51.90974 | 10.65812 | 32768 ft | 410 kts | 208° |
| 2026-05-04 18:12 | 51.88394 | 10.63818 | 32320 ft | 412 kts | 208° |
| 2026-05-04 18:12 | 51.85798 | 10.61821 | 31885 ft | 412 kts | 208° |
| 2026-05-04 18:13 | 51.83211 | 10.59835 | 31496 ft | 410 kts | 208° |
| 2026-05-04 18:13 | 51.80570 | 10.57802 | 31097 ft | 408 kts | 208° |
| 2026-05-04 18:13 | 51.75496 | 10.53883 | 30356 ft | 405 kts | 208° |
| 2026-05-04 18:14 | 51.72953 | 10.51932 | 29976 ft | 403 kts | 208° |
| 2026-05-04 18:14 | 51.70422 | 10.49995 | 29556 ft | 401 kts | 208° |
| 2026-05-04 18:14 | 51.67906 | 10.48070 | 29135 ft | 399 kts | 208° |
| 2026-05-04 18:15 | 51.62914 | 10.44263 | 28305 ft | 394 kts | 208° |
| 2026-05-04 18:15 | 51.57949 | 10.40495 | 27483 ft | 390 kts | 208° |
| 2026-05-04 18:15 | 51.55506 | 10.38638 | 27095 ft | 389 kts | 208° |
| 2026-05-04 18:16 | 51.53060 | 10.36778 | 26714 ft | 388 kts | 208° |
| 2026-05-04 18:16 | 51.50625 | 10.34932 | 26319 ft | 386 kts | 208° |
| 2026-05-04 18:16 | 51.48198 | 10.33098 | 25943 ft | 385 kts | 208° |
| 2026-05-04 18:17 | 51.43386 | 10.29464 | 25209 ft | 381 kts | 207° |
| 2026-05-04 18:17 | 51.40971 | 10.27645 | 24974 ft | 380 kts | 207° |
| 2026-05-04 18:17 | 51.36213 | 10.24062 | 24510 ft | 376 kts | 207° |
| 2026-05-04 18:18 | 51.33836 | 10.22261 | 24260 ft | 378 kts | 207° |
| 2026-05-04 18:18 | 51.31484 | 10.20475 | 24052 ft | 379 kts | 207° |
| 2026-05-04 18:18 | 51.29075 | 10.18647 | 23964 ft | 378 kts | 207° |
| 2026-05-04 18:18 | 51.26723 | 10.16864 | 23986 ft | 379 kts | 207° |
| 2026-05-04 18:19 | 51.21960 | 10.13268 | 23987 ft | 378 kts | 207° |
| 2026-05-04 18:19 | 51.19544 | 10.11453 | 23771 ft | 378 kts | 207° |
| 2026-05-04 18:19 | 51.17177 | 10.09677 | 23344 ft | 375 kts | 207° |
| 2026-05-04 18:20 | 51.14815 | 10.07904 | 22878 ft | 372 kts | 207° |
| 2026-05-04 18:20 | 51.12507 | 10.06173 | 22418 ft | 370 kts | 207° |
| 2026-05-04 18:20 | 51.10185 | 10.04433 | 21967 ft | 367 kts | 207° |
| 2026-05-04 18:20 | 51.07851 | 10.02685 | 21521 ft | 365 kts | 207° |
| 2026-05-04 18:21 | 51.05553 | 10.00971 | 21085 ft | 363 kts | 207° |
| 2026-05-04 18:21 | 51.03268 | 9.99267 | 20651 ft | 360 kts | 207° |
| 2026-05-04 18:21 | 51.01090 | 9.97359 | 20227 ft | 356 kts | 217° |
| 2026-05-04 18:21 | 50.99105 | 9.95004 | 19808 ft | 354 kts | 218° |
| 2026-05-04 18:22 | 50.97139 | 9.92662 | 19403 ft | 352 kts | 218° |
| 2026-05-04 18:22 | 50.95209 | 9.90358 | 19002 ft | 350 kts | 218° |
| 2026-05-04 18:22 | 50.93262 | 9.88031 | 18569 ft | 349 kts | 218° |
| 2026-05-04 18:22 | 50.91321 | 9.85710 | 18071 ft | 347 kts | 218° |
| 2026-05-04 18:23 | 50.90042 | 9.84182 | 17708 ft | 347 kts | 218° |
| 2026-05-04 18:23 | 50.88066 | 9.81827 | 17167 ft | 346 kts | 217° |
| 2026-05-04 18:23 | 50.86140 | 9.79532 | 16643 ft | 345 kts | 217° |
| 2026-05-04 18:23 | 50.84225 | 9.77254 | 16131 ft | 344 kts | 217° |
| 2026-05-04 18:24 | 50.82309 | 9.74976 | 15633 ft | 343 kts | 217° |
| 2026-05-04 18:24 | 50.80419 | 9.72732 | 15142 ft | 342 kts | 217° |
| 2026-05-04 18:24 | 50.78514 | 9.70479 | 14655 ft | 341 kts | 217° |
| 2026-05-04 18:24 | 50.76611 | 9.68229 | 14169 ft | 340 kts | 216° |
| 2026-05-04 18:25 | 50.74721 | 9.65997 | 13686 ft | 339 kts | 216° |
| 2026-05-04 18:25 | 50.72835 | 9.63769 | 13156 ft | 337 kts | 216° |
| 2026-05-04 18:25 | 50.70958 | 9.61547 | 12630 ft | 335 kts | 216° |
| 2026-05-04 18:25 | 50.69084 | 9.59335 | 12109 ft | 333 kts | 216° |
| 2026-05-04 18:26 | 50.67210 | 9.57128 | 11597 ft | 330 kts | 216° |
| 2026-05-04 18:26 | 50.65394 | 9.54993 | 11121 ft | 327 kts | 216° |
| 2026-05-04 18:26 | 50.63573 | 9.52854 | 10955 ft | 315 kts | 216° |
| 2026-05-04 18:26 | 50.61836 | 9.50817 | 10964 ft | 312 kts | 216° |
| 2026-05-04 18:27 | 50.60108 | 9.48789 | 10973 ft | 311 kts | 216° |
| 2026-05-04 18:27 | 50.58352 | 9.46734 | 10978 ft | 311 kts | 216° |
| 2026-05-04 18:27 | 50.56636 | 9.44726 | 10978 ft | 311 kts | 216° |
| 2026-05-04 18:27 | 50.54917 | 9.42712 | 10865 ft | 308 kts | 216° |
| 2026-05-04 18:28 | 50.53187 | 9.40687 | 10427 ft | 307 kts | 216° |
| 2026-05-04 18:28 | 50.51478 | 9.38689 | 10010 ft | 304 kts | 216° |
| 2026-05-04 18:28 | 50.49785 | 9.36710 | 9571 ft | 302 kts | 216° |
| 2026-05-04 18:28 | 50.48103 | 9.34744 | 9106 ft | 300 kts | 216° |
| 2026-05-04 18:29 | 50.46404 | 9.32763 | 8620 ft | 299 kts | 216° |
| 2026-05-04 18:29 | 50.44731 | 9.30818 | 8151 ft | 298 kts | 216° |
| 2026-05-04 18:29 | 50.43063 | 9.28882 | 7849 ft | 298 kts | 216° |
| 2026-05-04 18:29 | 50.41389 | 9.26941 | 7710 ft | 299 kts | 216° |
| 2026-05-04 18:30 | 50.38037 | 9.23058 | 7409 ft | 298 kts | 216° |
| 2026-05-04 18:30 | 50.36398 | 9.21167 | 7259 ft | 292 kts | 216° |
| 2026-05-04 18:30 | 50.34798 | 9.19315 | 7111 ft | 279 kts | 216° |
| 2026-05-04 18:31 | 50.33252 | 9.17526 | 6958 ft | 273 kts | 216° |
| 2026-05-04 18:31 | 50.31725 | 9.15763 | 6808 ft | 272 kts | 216° |
| 2026-05-04 18:31 | 50.30203 | 9.14007 | 6668 ft | 271 kts | 216° |
| 2026-05-04 18:31 | 50.28681 | 9.12246 | 6523 ft | 271 kts | 216° |
| 2026-05-04 18:32 | 50.27158 | 9.10483 | 6376 ft | 273 kts | 216° |
| 2026-05-04 18:32 | 50.25624 | 9.08711 | 6222 ft | 273 kts | 216° |
| 2026-05-04 18:32 | 50.24092 | 9.06950 | 6067 ft | 273 kts | 216° |
| 2026-05-04 18:32 | 50.22560 | 9.05193 | 5920 ft | 273 kts | 216° |
| 2026-05-04 18:33 | 50.21020 | 9.03429 | 5758 ft | 274 kts | 216° |
| 2026-05-04 18:33 | 50.19466 | 9.01650 | 5602 ft | 267 kts | 216° |
| 2026-05-04 18:33 | 50.18004 | 8.99972 | 5447 ft | 255 kts | 216° |
| 2026-05-04 18:33 | 50.16604 | 8.98365 | 5299 ft | 244 kts | 216° |
| 2026-05-04 18:34 | 50.15281 | 8.96788 | 5151 ft | 235 kts | 223° |
| 2026-05-04 18:34 | 50.14362 | 8.94721 | 5047 ft | 234 kts | 246° |
| 2026-05-04 18:34 | 50.13794 | 8.92339 | 5009 ft | 233 kts | 249° |
| 2026-05-04 18:34 | 50.13261 | 8.90036 | 5009 ft | 218 kts | 249° |
| 2026-05-04 18:35 | 50.12757 | 8.87882 | 5005 ft | 205 kts | 249° |
| 2026-05-04 18:35 | 50.12277 | 8.85841 | 4912 ft | 197 kts | 249° |
| 2026-05-04 18:35 | 50.11805 | 8.83838 | 4685 ft | 197 kts | 249° |
| 2026-05-04 18:35 | 50.11329 | 8.81817 | 4412 ft | 200 kts | 249° |
| 2026-05-04 18:36 | 50.10846 | 8.79770 | 4130 ft | 201 kts | 249° |
| 2026-05-04 18:36 | 50.10368 | 8.77745 | 3851 ft | 197 kts | 249° |
| 2026-05-04 18:36 | 50.09899 | 8.75758 | 3562 ft | 193 kts | 250° |
| 2026-05-04 18:36 | 50.09437 | 8.73805 | 3287 ft | 190 kts | 250° |
| 2026-05-04 18:37 | 50.08981 | 8.71878 | 3031 ft | 188 kts | 250° |
| 2026-05-04 18:37 | 50.08529 | 8.69968 | 2761 ft | 187 kts | 251° |
| 2026-05-04 18:37 | 50.08079 | 8.68069 | 2492 ft | 187 kts | 251° |
| 2026-05-04 18:37 | 50.07628 | 8.66170 | 2223 ft | 186 kts | 251° |
| 2026-05-04 18:38 | 50.07329 | 8.64911 | 2052 ft | 186 kts | 251° |
| 2026-05-04 18:38 | 50.06852 | 8.62903 | 1758 ft | 178 kts | 251° |
| 2026-05-04 18:38 | 50.06437 | 8.61162 | 1493 ft | 168 kts | 251° |
| 2026-05-04 18:38 | 50.05943 | 8.59109 | 1191 ft | 158 kts | 252° |
| 2026-05-04 18:39 | 50.05560 | 8.57467 | 944 ft | 152 kts | 250° |
| 2026-05-04 18:39 | 50.05192 | 8.55939 | 726 ft | 151 kts | 253° |
| 2026-05-04 18:39 | 50.04950 | 8.54909 | 612 ft | 148 kts | 252° |
| 2026-05-04 18:39 | 50.04477 | 8.52938 | 365 ft | 144 kts | 252° |
| 2026-05-04 18:40 | 50.04153 | 8.51603 | 332 ft | 117 kts | 249° |
| 2026-05-04 18:40 | 50.03877 | 8.50258 | 430 ft | 154 kts | 251° |
| 2026-05-04 18:40 | 50.03508 | 8.48484 | 929 ft | 188 kts | 259° |
| 2026-05-04 18:40 | 50.03435 | 8.46346 | 1629 ft | 204 kts | 282° |
| 2026-05-04 18:41 | 50.04157 | 8.44464 | 2239 ft | 213 kts | 320° |
| 2026-05-04 18:41 | 50.05392 | 8.43163 | 3043 ft | 217 kts | 330° |
| 2026-05-04 18:41 | 50.06754 | 8.42098 | 3839 ft | 222 kts | 340° |
| 2026-05-04 18:41 | 50.08299 | 8.41683 | 4608 ft | 230 kts | 4° |
| 2026-05-04 18:42 | 50.09824 | 8.42439 | 4908 ft | 233 kts | 36° |
| 2026-05-04 18:42 | 50.10878 | 8.44294 | 5000 ft | 229 kts | 63° |
| 2026-05-04 18:42 | 50.11558 | 8.46512 | 5009 ft | 230 kts | 68° |
| 2026-05-04 18:42 | 50.12203 | 8.48866 | 5010 ft | 239 kts | 69° |
| 2026-05-04 18:43 | 50.12635 | 8.50477 | 5010 ft | 241 kts | 69° |
| 2026-05-04 18:43 | 50.13278 | 8.52894 | 5009 ft | 242 kts | 69° |
| 2026-05-04 18:43 | 50.13923 | 8.55328 | 5009 ft | 242 kts | 69° |
| 2026-05-04 18:43 | 50.14564 | 8.57750 | 5009 ft | 242 kts | 69° |
| 2026-05-04 18:44 | 50.15215 | 8.60210 | 5009 ft | 242 kts | 69° |
| 2026-05-04 18:44 | 50.15632 | 8.61787 | 5009 ft | 242 kts | 69° |
| 2026-05-04 18:44 | 50.16491 | 8.65033 | 5009 ft | 242 kts | 69° |
| 2026-05-04 18:44 | 50.17126 | 8.67434 | 5010 ft | 242 kts | 69° |
| 2026-05-04 18:45 | 50.17776 | 8.69892 | 5009 ft | 242 kts | 69° |
| 2026-05-04 18:45 | 50.18410 | 8.72299 | 5009 ft | 242 kts | 69° |
| 2026-05-04 18:45 | 50.19059 | 8.74765 | 5010 ft | 242 kts | 69° |
| 2026-05-04 18:45 | 50.19699 | 8.77202 | 5010 ft | 242 kts | 69° |
| 2026-05-04 18:46 | 50.20338 | 8.79638 | 5010 ft | 242 kts | 69° |
| 2026-05-04 18:46 | 50.20977 | 8.82069 | 5010 ft | 242 kts | 69° |
| 2026-05-04 18:46 | 50.21618 | 8.84508 | 5013 ft | 242 kts | 69° |
| 2026-05-04 18:46 | 50.22249 | 8.86916 | 5011 ft | 242 kts | 69° |
| 2026-05-04 18:47 | 50.22818 | 8.89409 | 5005 ft | 241 kts | 83° |
| 2026-05-04 18:47 | 50.22652 | 8.91959 | 5009 ft | 236 kts | 115° |
| 2026-05-04 18:47 | 50.21660 | 8.93936 | 5010 ft | 233 kts | 147° |
| 2026-05-04 18:47 | 50.20195 | 8.94988 | 5013 ft | 232 kts | 162° |
| 2026-05-04 18:48 | 50.18659 | 8.95765 | 5010 ft | 232 kts | 163° |
| 2026-05-04 18:48 | 50.17111 | 8.96501 | 5008 ft | 232 kts | 166° |
| 2026-05-04 18:48 | 50.15517 | 8.96564 | 5003 ft | 230 kts | 199° |
| 2026-05-04 18:48 | 50.14262 | 8.95098 | 5011 ft | 231 kts | 238° |
| 2026-05-04 18:49 | 50.13777 | 8.92702 | 5013 ft | 234 kts | 257° |
| 2026-05-04 18:49 | 50.13332 | 8.90288 | 5010 ft | 234 kts | 249° |
| 2026-05-04 18:49 | 50.12770 | 8.87901 | 5010 ft | 234 kts | 248° |
| 2026-05-04 18:49 | 50.12196 | 8.85490 | 4877 ft | 235 kts | 249° |
| 2026-05-04 18:50 | 50.11637 | 8.83126 | 4594 ft | 234 kts | 249° |
| 2026-05-04 18:50 | 50.11074 | 8.80737 | 4257 ft | 234 kts | 249° |
| 2026-05-04 18:50 | 50.10479 | 8.78213 | 3905 ft | 235 kts | 249° |
| 2026-05-04 18:50 | 50.09939 | 8.75927 | 3577 ft | 235 kts | 249° |
| 2026-05-04 18:51 | 50.09367 | 8.73509 | 3239 ft | 234 kts | 250° |
| 2026-05-04 18:51 | 50.08823 | 8.71210 | 2925 ft | 222 kts | 250° |
| 2026-05-04 18:51 | 50.08259 | 8.68830 | 2591 ft | 211 kts | 251° |
| 2026-05-04 18:51 | 50.07803 | 8.66911 | 2341 ft | 200 kts | 251° |
| 2026-05-04 18:52 | 50.07340 | 8.64962 | 2066 ft | 185 kts | 251° |
| 2026-05-04 18:52 | 50.06909 | 8.63149 | 1833 ft | 164 kts | 251° |
| 2026-05-04 18:52 | 50.06522 | 8.61538 | 1573 ft | 152 kts | 252° |
| 2026-05-04 18:52 | 50.06279 | 8.60503 | 1409 ft | 147 kts | 252° |
| 2026-05-04 18:53 | 50.05815 | 8.58557 | 1098 ft | 143 kts | 251° |
| 2026-05-04 18:53 | 50.05479 | 8.57113 | 893 ft | 138 kts | 253° |
| 2026-05-04 18:53 | 50.05140 | 8.55724 | 683 ft | 137 kts | 252° |
| 2026-05-04 18:53 | 50.04819 | 8.54345 | 524 ft | 136 kts | 253° |
| 2026-05-04 18:54 | 50.04485 | 8.52968 | 370 ft | 135 kts | 252° |
| 2026-05-04 18:54 | 50.04193 | 8.51729 | 332 ft | 101 kts | 249° |
| 2026-05-04 18:54 | 50.04027 | 8.51114 | 325 ft | 42 kts | 236° |
| 2026-05-04 18:54 | 50.03845 | 8.50860 | 329 ft | 26 kts | 210° |
| 2026-05-04 18:55 | 50.03782 | 8.50892 | 329 ft | 3 kts | 77° |
| 2026-05-04 18:55 | 50.03787 | 8.50917 | 332 ft | 1 kts | 74° |
| 2026-05-04 18:55 | 50.03794 | 8.50955 | 330 ft | 6 kts | 73° |
| 2026-05-04 18:56 | 50.03816 | 8.51063 | 333 ft | 14 kts | 71° |
| 2026-05-04 18:56 | 50.03851 | 8.51219 | 335 ft | 16 kts | 70° |
| 2026-05-04 18:56 | 50.03892 | 8.51390 | 335 ft | 17 kts | 70° |
| 2026-05-04 18:56 | 50.03936 | 8.51570 | 333 ft | 19 kts | 69° |
| 2026-05-04 18:57 | 50.03984 | 8.51769 | 335 ft | 20 kts | 70° |
| 2026-05-04 18:57 | 50.04033 | 8.51978 | 336 ft | 21 kts | 70° |
| 2026-05-04 18:57 | 50.04085 | 8.52194 | 351 ft | 21 kts | 70° |
| 2026-05-04 18:57 | 50.04138 | 8.52412 | 349 ft | 22 kts | 70° |
| 2026-05-04 18:58 | 50.04189 | 8.52629 | 357 ft | 22 kts | 70° |
| 2026-05-04 18:58 | 50.04242 | 8.52850 | 360 ft | 22 kts | 69° |
| 2026-05-04 18:58 | 50.04298 | 8.53081 | 359 ft | 23 kts | 70° |
| 2026-05-04 18:58 | 50.04355 | 8.53317 | 366 ft | 24 kts | 72° |
| 2026-05-04 18:59 | 50.04398 | 8.53552 | 375 ft | 22 kts | 83° |
| 2026-05-04 18:59 | 50.04414 | 8.53799 | 375 ft | 23 kts | 84° |
| 2026-05-04 18:59 | 50.04431 | 8.54044 | 375 ft | 21 kts | 84° |
| 2026-05-04 18:59 | 50.04442 | 8.54212 | 375 ft | 12 kts | 84° |
| 2026-05-04 19:00 | 50.04450 | 8.54336 | 374 ft | 12 kts | 84° |
| 2026-05-04 19:00 | 50.04454 | 8.54436 | 371 ft | 14 kts | 90° |
| 2026-05-04 19:00 | 50.04429 | 8.54587 | 370 ft | 14 kts | 116° |
| 2026-05-04 19:00 | 50.04378 | 8.54701 | 361 ft | 10 kts | 135° |
| 2026-05-04 19:01 | 50.04353 | 8.54734 | 359 ft | 1 kts | 143° |
| 2026-05-04 19:01 | 50.04347 | 8.54741 | 359 ft | 1 kts | 145° |
| 2026-05-04 19:01 | 50.04341 | 8.54746 | 359 ft | 1 kts | 147° |
| 2026-05-04 19:01 | 50.04340 | 8.54747 | 365 ft | 0 kts | 147° |
| 2026-05-04 19:02 | 50.04339 | 8.54748 | 365 ft | 1 kts | 147° |
| 2026-05-04 19:02 | 50.04318 | 8.54767 | 357 ft | 6 kts | 152° |
| 2026-05-04 19:02 | 50.04268 | 8.54798 | 357 ft | 9 kts | 159° |
| 2026-05-04 19:02 | 50.04199 | 8.54837 | 355 ft | 11 kts | 160° |
| 2026-05-04 19:03 | 50.04126 | 8.54878 | 352 ft | 11 kts | 160° |
| 2026-05-04 19:03 | 50.04069 | 8.54911 | 356 ft | 5 kts | 160° |
| 2026-05-04 19:03 | 50.04054 | 8.54920 | 354 ft | 1 kts | 160° |
| 2026-05-04 19:03 | 50.04041 | 8.54927 | 356 ft | 8 kts | 160° |
| 2026-05-04 19:04 | 50.03973 | 8.54967 | 357 ft | 11 kts | 159° |
| 2026-05-04 19:04 | 50.03916 | 8.55001 | 356 ft | 0 kts | 159° |
| 2026-05-04 19:04 | 50.03912 | 8.55003 | 354 ft | 2 kts | 159° |
| 2026-05-04 19:04 | 50.03908 | 8.55006 | 355 ft | 0 kts | 159° |
| 2026-05-04 19:05 | 50.03902 | 8.55009 | 355 ft | 2 kts | 159° |
| 2026-05-04 19:05 | 50.03886 | 8.55019 | 354 ft | 3 kts | 159° |
| 2026-05-04 19:05 | 50.03862 | 8.55035 | 357 ft | 4 kts | 150° |
| 2026-05-04 19:06 | 50.03845 | 8.55084 | 350 ft | 5 kts | 96° |
| 2026-05-04 19:06 | 50.03854 | 8.55134 | 357 ft | 4 kts | 70° |
| 2026-05-04 19:06 | 50.03863 | 8.55173 | 351 ft | 4 kts | 69° |
| 2026-05-04 19:06 | 50.03880 | 8.55240 | 349 ft | 9 kts | 68° |
| 2026-05-04 19:07 | 50.03905 | 8.55343 | 353 ft | 10 kts | 71° |
| 2026-05-04 19:07 | 50.03932 | 8.55460 | 356 ft | 15 kts | 69° |
| 2026-05-04 19:07 | 50.03979 | 8.55655 | 351 ft | 23 kts | 69° |
| 2026-05-04 19:07 | 50.04040 | 8.55920 | 357 ft | 27 kts | 70° |
| 2026-05-04 19:08 | 50.04107 | 8.56196 | 357 ft | 28 kts | 69° |
| 2026-05-04 19:08 | 50.04177 | 8.56483 | 358 ft | 29 kts | 69° |
| 2026-05-04 19:08 | 50.04243 | 8.56743 | 364 ft | 19 kts | 65° |
| 2026-05-04 19:08 | 50.04327 | 8.56818 | 360 ft | 10 kts | 13° |
| 2026-05-04 19:09 | 50.04369 | 8.56834 | 360 ft | 2 kts | 12° |
| 2026-05-04 19:09 | 50.04395 | 8.56841 | 363 ft | 9 kts | 8° |
| 2026-05-04 19:09 | 50.04489 | 8.56868 | 359 ft | 17 kts | 12° |
| 2026-05-04 19:09 | 50.04613 | 8.56912 | 356 ft | 19 kts | 13° |
| 2026-05-04 19:10 | 50.04689 | 8.56959 | 358 ft | 17 kts | 25° |
| 2026-05-04 19:10 | 50.04806 | 8.57042 | 359 ft | 18 kts | 24° |
| 2026-05-04 19:10 | 50.04870 | 8.57073 | 359 ft | 3 kts | 312° |
| 2026-05-04 19:10 | 50.04878 | 8.57050 | 358 ft | 2 kts | 298° |
| 2026-05-04 19:11 | 50.04882 | 8.57036 | 361 ft | 1 kts | 294° |
| 2026-05-04 19:11 | 50.04884 | 8.57031 | 361 ft | 1 kts | 294° |
| 2026-05-04 19:11 | 50.04889 | 8.57014 | 357 ft | 1 kts | 295° |
| 2026-05-04 19:11 | 50.04891 | 8.57007 | 357 ft | 0 kts | 295° |
| 2026-05-04 19:12 | 50.04895 | 8.56995 | 365 ft | 0 kts | 295° |
| 2026-05-04 19:12 | 50.04895 | 8.56994 | 365 ft | 0 kts | 295° |